createdAt,value
2022-11-30T00:00:19.154Z,3.6
2022-11-30T00:01:20.924Z,3.6
2022-11-30T00:02:20.636Z,3.6
2022-11-30T00:03:20.683Z,3.6
2022-11-30T00:04:20.603Z,3.6
2022-11-30T00:05:20.960Z,3.6
2022-11-30T00:06:20.400Z,3.6
2022-11-30T00:07:20.949Z,3.6
2022-11-30T00:08:20.317Z,3.6
2022-11-30T00:09:20.818Z,3.6
2022-11-30T00:10:20.265Z,3
2022-11-30T00:11:20.736Z,3.5
2022-11-30T00:12:20.205Z,3.6
2022-11-30T00:13:20.654Z,3.6
2022-11-30T00:14:21.120Z,3.5
2022-11-30T00:15:20.554Z,3.6
2022-11-30T00:16:20.454Z,3.6
2022-11-30T00:17:20.899Z,3.5
2022-11-30T00:18:20.581Z,3.6
2022-11-30T00:19:20.975Z,3.6
2022-11-30T00:20:20.377Z,3
2022-11-30T00:21:20.830Z,3.6
2022-11-30T00:22:20.733Z,3.6
2022-11-30T00:23:21.069Z,3.5
2022-11-30T00:24:19.942Z,3.5
2022-11-30T00:25:19.940Z,3.6
2022-11-30T00:26:20.207Z,3.5
2022-11-30T00:27:19.228Z,3.5
2022-11-30T00:28:21.012Z,3.6
2022-11-30T00:29:20.796Z,3.5
2022-11-30T00:30:21.057Z,3.5
2022-11-30T00:31:20.568Z,3.5
2022-11-30T00:32:20.743Z,3
2022-11-30T00:33:20.393Z,3.5
2022-11-30T00:34:20.556Z,3.5
2022-11-30T00:35:20.980Z,3.5
2022-11-30T00:36:20.554Z,3.5
2022-11-30T00:37:20.926Z,3.5
2022-11-30T00:38:20.724Z,3.5
2022-11-30T00:39:20.119Z,3.5
2022-11-30T00:40:20.607Z,3.5
2022-11-30T00:41:20.999Z,3.5
2022-11-30T00:42:21.092Z,3.5
2022-11-30T00:43:20.506Z,3.5
2022-11-30T00:44:21.006Z,3.5
2022-11-30T00:45:20.971Z,3.5
2022-11-30T00:46:20.422Z,3.5
2022-11-30T00:47:20.594Z,3.5
2022-11-30T00:48:20.981Z,3.5
2022-11-30T00:49:20.449Z,3.5
2022-11-30T00:50:20.187Z,3.5
2022-11-30T00:51:20.662Z,3.5
2022-11-30T00:52:20.550Z,3.5
2022-11-30T00:53:19.575Z,3.5
2022-11-30T00:54:21.033Z,3.5
2022-11-30T00:55:20.715Z,3.5
2022-11-30T00:56:20.963Z,3.5
2022-11-30T00:57:20.497Z,3.5
2022-11-30T00:58:20.359Z,3.5
2022-11-30T00:59:20.779Z,3.5
2022-11-30T01:00:20.684Z,3.5
2022-11-30T01:01:20.736Z,3.5
2022-11-30T01:02:20.919Z,3.5
2022-11-30T01:03:20.585Z,3.5
2022-11-30T01:04:20.761Z,3.5
2022-11-30T01:05:21.095Z,3.5
2022-11-30T01:06:20.683Z,3.4
2022-11-30T01:07:20.631Z,3.5
2022-11-30T01:08:20.980Z,3.5
2022-11-30T01:09:21.119Z,3.4
2022-11-30T01:10:20.444Z,3.5
2022-11-30T01:11:21.058Z,3.4
2022-11-30T01:12:20.258Z,3.4
2022-11-30T01:13:21.043Z,3.4
2022-11-30T01:14:20.239Z,3.4
2022-11-30T01:15:20.701Z,3.4
2022-11-30T01:16:19.717Z,3.4
2022-11-30T01:17:20.528Z,3.4
2022-11-30T01:18:20.858Z,3
2022-11-30T01:19:19.172Z,3
2022-11-30T01:20:20.770Z,3
2022-11-30T01:21:20.175Z,3.4
2022-11-30T01:22:20.592Z,3.4
2022-11-30T01:23:20.334Z,3.4
2022-11-30T01:24:19.659Z,3.4
2022-11-30T01:25:20.492Z,3
2022-11-30T01:26:20.793Z,3.4
2022-11-30T01:27:20.273Z,3.4
2022-11-30T01:28:20.656Z,3.4
2022-11-30T01:29:20.877Z,3.4
2022-11-30T01:30:20.376Z,3.4
2022-11-30T01:31:20.708Z,3.4
2022-11-30T01:32:20.824Z,3
2022-11-30T01:33:20.108Z,3
2022-11-30T01:34:20.982Z,3.4
2022-11-30T01:35:20.843Z,3.3
2022-11-30T01:36:20.020Z,3.3
2022-11-30T01:37:20.571Z,3.3
2022-11-30T01:38:20.665Z,3.3
2022-11-30T01:39:20.203Z,3.3
2022-11-30T01:40:20.190Z,3.3
2022-11-30T01:41:20.757Z,3.3
2022-11-30T01:42:20.187Z,3.3
2022-11-30T01:43:20.343Z,3.3
2022-11-30T01:44:20.514Z,3
2022-11-30T01:45:20.562Z,3.3
2022-11-30T01:46:20.862Z,3.3
2022-11-30T01:47:21.137Z,3.3
2022-11-30T01:48:20.612Z,3.3
2022-11-30T01:49:20.900Z,3.3
2022-11-30T01:50:20.420Z,3.3
2022-11-30T01:51:20.648Z,3.3
2022-11-30T01:52:21.081Z,3.3
2022-11-30T01:53:20.416Z,3
2022-11-30T01:54:19.481Z,3
2022-11-30T01:55:20.482Z,3.3
2022-11-30T01:56:21.078Z,3.3
2022-11-30T01:57:20.316Z,3.3
2022-11-30T01:58:19.889Z,3.3
2022-11-30T01:59:20.700Z,3.3
2022-11-30T02:00:20.952Z,3.3
2022-11-30T02:01:20.498Z,3.3
2022-11-30T02:02:20.350Z,3.3
2022-11-30T02:03:20.397Z,3.3
2022-11-30T02:04:21.051Z,3.3
2022-11-30T02:05:20.418Z,3.3
2022-11-30T02:06:20.840Z,3.3
2022-11-30T02:07:20.272Z,3.2
2022-11-30T02:08:20.704Z,3.2
2022-11-30T02:09:20.427Z,3.2
2022-11-30T02:10:21.111Z,3.2
2022-11-30T02:11:20.507Z,3.2
2022-11-30T02:12:21.009Z,3.2
2022-11-30T02:13:20.415Z,3.2
2022-11-30T02:14:20.525Z,3.3
2022-11-30T02:15:20.526Z,3.3
2022-11-30T02:16:20.919Z,3.3
2022-11-30T02:17:20.102Z,3.3
2022-11-30T02:18:20.292Z,3.2
2022-11-30T02:19:20.563Z,3.2
2022-11-30T02:20:21.170Z,3.2
2022-11-30T02:21:20.983Z,3.2
2022-11-30T02:22:20.301Z,3.2
2022-11-30T02:23:20.864Z,3.2
2022-11-30T02:24:20.197Z,3.2
2022-11-30T02:25:20.294Z,3.2
2022-11-30T02:26:20.506Z,3.2
2022-11-30T02:27:19.664Z,3.2
2022-11-30T02:28:21.086Z,3.2
2022-11-30T02:29:20.253Z,3.2
2022-11-30T02:30:20.766Z,3.2
2022-11-30T02:31:20.704Z,3.2
2022-11-30T02:32:20.770Z,3.2
2022-11-30T02:33:20.993Z,3.2
2022-11-30T02:34:20.530Z,3.2
2022-11-30T02:35:20.672Z,3.2
2022-11-30T02:36:21.008Z,3.2
2022-11-30T02:37:20.472Z,3.2
2022-11-30T02:38:20.965Z,3.2
2022-11-30T02:39:20.406Z,3.2
2022-11-30T02:40:20.929Z,3.2
2022-11-30T02:41:20.221Z,3.2
2022-11-30T02:42:20.684Z,3.2
2022-11-30T02:43:21.107Z,3.2
2022-11-30T02:44:20.542Z,3.2
2022-11-30T02:45:20.998Z,3.3
2022-11-30T02:46:21.028Z,3.2
2022-11-30T02:47:20.424Z,3
2022-11-30T02:48:20.784Z,3.2
2022-11-30T02:49:20.892Z,3.2
2022-11-30T02:50:21.068Z,3.2
2022-11-30T02:51:20.478Z,3.2
2022-11-30T02:52:20.931Z,3.2
2022-11-30T02:53:20.460Z,3.2
2022-11-30T02:54:20.701Z,3.2
2022-11-30T02:55:20.134Z,3.2
2022-11-30T02:56:20.312Z,3.2
2022-11-30T02:57:20.357Z,3.2
2022-11-30T02:58:20.620Z,3.2
2022-11-30T02:59:20.182Z,3.2
2022-11-30T03:00:21.119Z,3.2
2022-11-30T03:01:20.891Z,3.2
2022-11-30T03:02:20.410Z,3.2
2022-11-30T03:03:20.679Z,3.2
2022-11-30T03:04:20.989Z,3.2
2022-11-30T03:05:20.400Z,3.2
2022-11-30T03:06:20.919Z,3.2
2022-11-30T03:07:20.459Z,3.2
2022-11-30T03:08:20.173Z,3.3
2022-11-30T03:09:19.389Z,3.3
2022-11-30T03:10:20.294Z,3.3
2022-11-30T03:11:21.072Z,3.3
2022-11-30T03:12:20.536Z,3.3
2022-11-30T03:13:21.136Z,3.3
2022-11-30T03:14:20.495Z,3.3
2022-11-30T03:15:20.906Z,3.3
2022-11-30T03:16:21.171Z,3.3
2022-11-30T03:17:20.736Z,3.3
2022-11-30T03:18:20.922Z,3.3
2022-11-30T03:19:20.973Z,3.3
2022-11-30T03:20:20.459Z,3.3
2022-11-30T03:21:20.247Z,3.3
2022-11-30T03:22:20.837Z,3.3
2022-11-30T03:23:20.091Z,3.3
2022-11-30T03:24:20.885Z,3.3
2022-11-30T03:25:20.356Z,3.3
2022-11-30T03:26:20.693Z,3.3
2022-11-30T03:27:20.233Z,3.3
2022-11-30T03:28:20.211Z,3.3
2022-11-30T03:29:20.657Z,3.3
2022-11-30T03:30:21.025Z,3.3
2022-11-30T03:31:20.060Z,3.3
2022-11-30T03:32:21.191Z,3.3
2022-11-30T03:33:20.598Z,3.3
2022-11-30T03:34:20.911Z,3.3
2022-11-30T03:35:20.985Z,3.3
2022-11-30T03:36:19.646Z,3.3
2022-11-30T03:37:19.745Z,3.3
2022-11-30T03:38:21.133Z,3.3
2022-11-30T03:39:20.611Z,3.3
2022-11-30T03:40:20.505Z,3.3
2022-11-30T03:41:20.827Z,3.3
2022-11-30T03:42:20.890Z,3.2
2022-11-30T03:43:20.387Z,3.2
2022-11-30T03:44:20.602Z,3.2
2022-11-30T03:45:20.374Z,3.2
2022-11-30T03:46:20.226Z,3.2
2022-11-30T03:47:20.891Z,3.2
2022-11-30T03:48:20.266Z,3.2
2022-11-30T03:49:20.773Z,3.2
2022-11-30T03:50:20.925Z,3.2
2022-11-30T03:51:20.302Z,3.2
2022-11-30T03:52:20.885Z,3.2
2022-11-30T03:53:20.701Z,3.2
2022-11-30T03:54:20.393Z,3.2
2022-11-30T03:55:20.952Z,3.2
2022-11-30T03:56:20.281Z,3.2
2022-11-30T03:57:20.503Z,3.2
2022-11-30T03:58:21.021Z,3.2
2022-11-30T03:59:20.348Z,3.2
2022-11-30T04:00:20.836Z,3.2
2022-11-30T04:01:20.968Z,3
2022-11-30T04:02:21.224Z,3.2
2022-11-30T04:03:20.612Z,3.2
2022-11-30T04:04:21.055Z,3.2
2022-11-30T04:05:20.139Z,3.2
2022-11-30T04:06:19.729Z,3.2
2022-11-30T04:07:20.098Z,3
2022-11-30T04:08:19.259Z,3
2022-11-30T04:09:20.170Z,3.2
2022-11-30T04:10:20.646Z,3.2
2022-11-30T04:11:20.848Z,3.2
2022-11-30T04:12:20.510Z,3.2
2022-11-30T04:13:20.849Z,3.2
2022-11-30T04:14:20.529Z,3.2
2022-11-30T04:15:20.165Z,3.2
2022-11-30T04:16:20.214Z,3.2
2022-11-30T04:17:20.818Z,3.2
2022-11-30T04:18:20.274Z,3
2022-11-30T04:19:21.070Z,3.2
2022-11-30T04:20:20.507Z,3.1
2022-11-30T04:21:20.497Z,3.1
2022-11-30T04:22:21.785Z,3.2
2022-11-30T04:23:20.739Z,3.1
2022-11-30T04:24:21.041Z,3.2
2022-11-30T04:25:20.599Z,3.1
2022-11-30T04:26:20.485Z,3.2
2022-11-30T04:27:20.941Z,3.1
2022-11-30T04:28:20.531Z,3
2022-11-30T04:29:20.361Z,3.1
2022-11-30T04:30:20.769Z,3
2022-11-30T04:31:20.289Z,3.2
2022-11-30T04:32:21.081Z,3.1
2022-11-30T04:33:20.527Z,3.1
2022-11-30T04:34:20.876Z,3.1
2022-11-30T04:35:19.531Z,3.1
2022-11-30T04:36:20.985Z,3.2
2022-11-30T04:37:20.171Z,3.2
2022-11-30T04:38:20.711Z,3.1
2022-11-30T04:39:20.692Z,3.1
2022-11-30T04:40:21.128Z,3.1
2022-11-30T04:41:20.507Z,3.1
2022-11-30T04:42:21.036Z,3
2022-11-30T04:43:20.527Z,3.1
2022-11-30T04:44:20.933Z,3.1
2022-11-30T04:45:20.429Z,3.1
2022-11-30T04:46:20.476Z,3.1
2022-11-30T04:47:20.262Z,3.1
2022-11-30T04:48:20.574Z,3.1
2022-11-30T04:49:21.086Z,3.1
2022-11-30T04:50:20.528Z,3.1
2022-11-30T04:51:20.949Z,3
2022-11-30T04:52:20.484Z,3
2022-11-30T04:53:20.820Z,3.1
2022-11-30T04:54:21.135Z,3
2022-11-30T04:55:20.650Z,3
2022-11-30T04:56:20.145Z,3
2022-11-30T04:57:20.595Z,3
2022-11-30T04:58:21.022Z,3
2022-11-30T04:59:20.419Z,3
2022-11-30T05:00:19.619Z,3
2022-11-30T05:01:20.799Z,3
2022-11-30T05:02:20.348Z,3
2022-11-30T05:03:20.897Z,3
2022-11-30T05:04:20.556Z,3
2022-11-30T05:05:20.891Z,3
2022-11-30T05:06:20.645Z,3
2022-11-30T05:07:19.668Z,3
2022-11-30T05:08:20.990Z,3
2022-11-30T05:09:20.325Z,3
2022-11-30T05:10:20.252Z,3
2022-11-30T05:11:21.136Z,3
2022-11-30T05:12:20.966Z,3
2022-11-30T05:13:20.428Z,3
2022-11-30T05:14:20.861Z,3
2022-11-30T05:15:20.700Z,3
2022-11-30T05:16:20.980Z,3
2022-11-30T05:17:20.315Z,3
2022-11-30T05:18:20.402Z,3
2022-11-30T05:19:20.757Z,3
2022-11-30T05:20:20.764Z,3
2022-11-30T05:21:20.415Z,3
2022-11-30T05:22:20.845Z,3
2022-11-30T05:23:20.520Z,3
2022-11-30T05:24:21.006Z,3
2022-11-30T05:25:20.995Z,3
2022-11-30T05:26:20.361Z,3
2022-11-30T05:27:22.637Z,3
2022-11-30T05:28:20.539Z,3
2022-11-30T05:29:20.867Z,3
2022-11-30T05:30:19.912Z,3
2022-11-30T05:31:19.319Z,3
2022-11-30T05:32:21.062Z,3
2022-11-30T05:33:20.393Z,3
2022-11-30T05:34:20.583Z,3
2022-11-30T05:35:21.127Z,3
2022-11-30T05:36:20.447Z,3
2022-11-30T05:37:20.873Z,3
2022-11-30T05:38:19.477Z,3
2022-11-30T05:39:20.615Z,3
2022-11-30T05:40:20.416Z,3
2022-11-30T05:41:20.670Z,3
2022-11-30T05:42:20.446Z,3
2022-11-30T05:43:20.786Z,3
2022-11-30T05:44:20.896Z,3
2022-11-30T05:45:20.289Z,3
2022-11-30T05:46:20.786Z,3
2022-11-30T05:47:20.540Z,3
2022-11-30T05:48:19.806Z,3
2022-11-30T05:49:19.226Z,3
2022-11-30T05:50:19.534Z,3
2022-11-30T05:51:20.692Z,3
2022-11-30T05:52:19.854Z,3
2022-11-30T05:53:20.262Z,3
2022-11-30T05:54:20.234Z,3
2022-11-30T05:55:20.641Z,3
2022-11-30T05:56:20.842Z,3
2022-11-30T05:57:21.126Z,3
2022-11-30T05:58:20.717Z,3
2022-11-30T05:59:21.181Z,3
2022-11-30T06:00:20.511Z,3
2022-11-30T06:01:20.530Z,3
2022-11-30T06:02:25.222Z,3
2022-11-30T06:03:20.781Z,3
2022-11-30T06:04:21.052Z,3
2022-11-30T06:05:20.484Z,3
2022-11-30T06:06:19.522Z,3
2022-11-30T06:07:20.364Z,3
2022-11-30T06:08:21.149Z,3
2022-11-30T06:09:20.634Z,3
2022-11-30T06:10:20.340Z,3
2022-11-30T06:11:20.973Z,3
2022-11-30T06:12:20.415Z,3
2022-11-30T06:13:23.565Z,3
2022-11-30T06:14:21.056Z,3
2022-11-30T06:15:20.603Z,3
2022-11-30T06:16:21.078Z,3
2022-11-30T06:17:20.865Z,3
2022-11-30T06:18:20.252Z,3
2022-11-30T06:19:20.183Z,3
2022-11-30T06:20:20.603Z,3
2022-11-30T06:21:24.321Z,3
2022-11-30T06:22:20.913Z,3
2022-11-30T06:23:20.662Z,3
2022-11-30T06:24:20.592Z,3
2022-11-30T06:25:20.901Z,3
2022-11-30T06:26:20.551Z,3
2022-11-30T06:27:19.432Z,3
2022-11-30T06:28:20.921Z,3
2022-11-30T06:29:20.730Z,3
2022-11-30T06:30:21.036Z,3
2022-11-30T06:31:21.112Z,3
2022-11-30T06:32:20.446Z,3
2022-11-30T06:33:20.266Z,3
2022-11-30T06:34:20.809Z,3
2022-11-30T06:35:20.349Z,3
2022-11-30T06:36:20.664Z,3
2022-11-30T06:37:20.427Z,3
2022-11-30T06:38:20.966Z,3
2022-11-30T06:39:36.844Z,3
2022-11-30T06:40:20.536Z,3
2022-11-30T06:41:20.839Z,3
2022-11-30T06:42:20.266Z,3
2022-11-30T06:43:20.641Z,3
2022-11-30T06:44:20.767Z,3
2022-11-30T06:45:20.117Z,3
2022-11-30T06:46:21.042Z,2.9
2022-11-30T06:47:20.380Z,2.9
2022-11-30T06:48:19.311Z,3
2022-11-30T06:49:20.068Z,3
2022-11-30T06:50:20.501Z,3
2022-11-30T06:51:20.680Z,3
2022-11-30T06:52:20.570Z,3
2022-11-30T06:53:20.944Z,3
2022-11-30T06:54:20.720Z,3
2022-11-30T06:55:20.302Z,3
2022-11-30T06:56:21.158Z,3
2022-11-30T06:57:20.913Z,3
2022-11-30T06:58:19.918Z,3
2022-11-30T06:59:20.321Z,3
2022-11-30T07:00:21.048Z,3
2022-11-30T07:01:21.150Z,3
2022-11-30T07:02:20.540Z,3
2022-11-30T07:03:20.627Z,3
2022-11-30T07:04:20.937Z,3
2022-11-30T07:05:20.718Z,3
2022-11-30T07:06:20.794Z,3
2022-11-30T07:07:20.322Z,3
2022-11-30T07:08:20.177Z,3
2022-11-30T07:09:21.010Z,3
2022-11-30T07:10:20.347Z,3
2022-11-30T07:11:19.310Z,3
2022-11-30T07:12:20.584Z,3
2022-11-30T07:13:19.264Z,3
2022-11-30T07:14:20.683Z,3
2022-11-30T07:15:20.319Z,3
2022-11-30T07:16:21.213Z,3
2022-11-30T07:17:20.527Z,3
2022-11-30T07:18:20.987Z,3
2022-11-30T07:19:20.527Z,3
2022-11-30T07:20:20.359Z,2.9
2022-11-30T07:21:20.726Z,3
2022-11-30T07:22:20.812Z,3
2022-11-30T07:23:20.358Z,3
2022-11-30T07:24:20.268Z,2.9
2022-11-30T07:25:20.638Z,3
2022-11-30T07:26:21.049Z,3
2022-11-30T07:27:20.873Z,3
2022-11-30T07:28:20.263Z,3
2022-11-30T07:29:20.603Z,3
2022-11-30T07:30:20.523Z,3
2022-11-30T07:31:20.477Z,3
2022-11-30T07:32:20.758Z,3
2022-11-30T07:33:20.964Z,3
2022-11-30T07:34:21.013Z,3
2022-11-30T07:35:20.237Z,3
2022-11-30T07:36:20.826Z,3
2022-11-30T07:37:20.189Z,3
2022-11-30T07:38:20.752Z,3
2022-11-30T07:39:20.566Z,3
2022-11-30T07:40:20.969Z,3
2022-11-30T07:41:21.029Z,3
2022-11-30T07:42:21.071Z,3.1
2022-11-30T07:43:20.453Z,3.1
2022-11-30T07:44:21.092Z,3.1
2022-11-30T07:45:20.350Z,3
2022-11-30T07:46:21.120Z,3
2022-11-30T07:47:20.554Z,3
2022-11-30T07:48:20.259Z,3
2022-11-30T07:49:20.917Z,3.1
2022-11-30T07:50:20.328Z,3.1
2022-11-30T07:51:20.867Z,3
2022-11-30T07:52:20.788Z,3.1
2022-11-30T07:53:21.220Z,3
2022-11-30T07:54:20.650Z,3
2022-11-30T07:55:21.115Z,3
2022-11-30T07:56:20.059Z,3
2022-11-30T07:57:20.856Z,3
2022-11-30T07:58:19.730Z,3
2022-11-30T07:59:21.201Z,3
2022-11-30T08:00:20.757Z,3.1
2022-11-30T08:01:20.814Z,3.1
2022-11-30T08:02:20.043Z,3.1
2022-11-30T08:03:20.379Z,3
2022-11-30T08:04:19.598Z,3
2022-11-30T08:05:21.022Z,3.1
2022-11-30T08:06:20.357Z,3.1
2022-11-30T08:07:20.255Z,3.1
2022-11-30T08:08:20.455Z,3.1
2022-11-30T08:09:21.031Z,3.1
2022-11-30T08:10:20.550Z,3.1
2022-11-30T08:11:20.879Z,3.1
2022-11-30T08:12:20.235Z,3.2
2022-11-30T08:13:20.617Z,3.1
2022-11-30T08:14:20.463Z,3.2
2022-11-30T08:15:22.311Z,3.2
2022-11-30T08:16:20.528Z,3.2
2022-11-30T08:17:20.788Z,3.2
2022-11-30T08:18:20.265Z,3.2
2022-11-30T08:19:20.843Z,3.2
2022-11-30T08:20:21.012Z,3.2
2022-11-30T08:21:20.365Z,3.2
2022-11-30T08:22:20.347Z,3.2
2022-11-30T08:23:21.076Z,3.2
2022-11-30T08:24:20.632Z,3.2
2022-11-30T08:25:21.000Z,3.2
2022-11-30T08:26:20.103Z,3.2
2022-11-30T08:27:20.475Z,3.2
2022-11-30T08:28:20.435Z,3.2
2022-11-30T08:29:20.981Z,3.2
2022-11-30T08:30:20.412Z,3.2
2022-11-30T08:31:21.062Z,3.2
2022-11-30T08:32:20.293Z,3.2
2022-11-30T08:33:20.701Z,3.2
2022-11-30T08:34:20.296Z,3.2
2022-11-30T08:35:21.025Z,3.2
2022-11-30T08:36:20.407Z,3.2
2022-11-30T08:37:20.757Z,3.2
2022-11-30T08:38:20.199Z,3.3
2022-11-30T08:39:20.786Z,3.2
2022-11-30T08:40:20.735Z,3.3
2022-11-30T08:41:21.135Z,3.3
2022-11-30T08:42:20.583Z,3.2
2022-11-30T08:43:20.268Z,3.2
2022-11-30T08:44:21.148Z,3.2
2022-11-30T08:45:19.379Z,3.3
2022-11-30T08:46:50.672Z,3.3
2022-11-30T08:47:20.606Z,3.3
2022-11-30T08:48:20.552Z,3.3
2022-11-30T08:50:20.301Z,3.3
2022-11-30T08:51:20.543Z,3.3
2022-11-30T08:52:20.558Z,3.3
2022-11-30T08:53:20.566Z,3.3
2022-11-30T08:54:21.079Z,3.3
2022-11-30T08:55:20.463Z,3.3
2022-11-30T08:56:20.884Z,3.4
2022-11-30T08:57:20.434Z,3.4
2022-11-30T08:58:20.755Z,3
2022-11-30T08:59:21.158Z,3
2022-11-30T09:00:20.642Z,3.3
2022-11-30T09:01:20.331Z,3
2022-11-30T09:02:20.920Z,3.4
2022-11-30T09:03:21.162Z,3.4
2022-11-30T09:04:20.575Z,3.3
2022-11-30T09:05:21.239Z,3.3
2022-11-30T09:06:20.676Z,3.3
2022-11-30T09:07:21.106Z,3.3
2022-11-30T09:08:20.381Z,3.3
2022-11-30T09:09:20.750Z,3.3
2022-11-30T09:10:20.229Z,3.3
2022-11-30T09:11:20.626Z,3.3
2022-11-30T09:12:21.114Z,3.3
2022-11-30T09:13:20.540Z,3
2022-11-30T09:14:20.857Z,3.4
2022-11-30T09:15:20.998Z,3.4
2022-11-30T09:16:20.018Z,3.4
2022-11-30T09:17:20.259Z,3.4
2022-11-30T09:18:20.721Z,3.4
2022-11-30T09:19:20.779Z,3.3
2022-11-30T09:20:20.981Z,3.3
2022-11-30T09:21:20.288Z,3.4
2022-11-30T09:22:20.956Z,3.4
2022-11-30T09:23:20.753Z,3.4
2022-11-30T09:24:20.710Z,3.4
2022-11-30T09:25:20.599Z,3.4
2022-11-30T09:26:20.409Z,3.4
2022-11-30T09:27:20.864Z,3.4
2022-11-30T09:28:20.195Z,3.4
2022-11-30T09:29:21.218Z,3.5
2022-11-30T09:30:20.088Z,3.5
2022-11-30T09:31:20.885Z,3.5
2022-11-30T09:32:20.834Z,3.5
2022-11-30T09:33:20.359Z,3.5
2022-11-30T09:34:21.057Z,3.5
2022-11-30T09:35:20.408Z,3.5
2022-11-30T09:36:20.585Z,3.5
2022-11-30T09:37:20.603Z,3.5
2022-11-30T09:38:20.628Z,3.6
2022-11-30T09:39:20.957Z,3.6
2022-11-30T09:40:21.121Z,3.6
2022-11-30T09:41:21.185Z,3.7
2022-11-30T09:42:20.506Z,3.6
2022-11-30T09:43:20.931Z,3.6
2022-11-30T09:44:20.925Z,3.6
2022-11-30T09:45:20.207Z,3.6
2022-11-30T09:46:20.239Z,3.7
2022-11-30T09:47:21.148Z,3.7
2022-11-30T09:48:20.452Z,3.7
2022-11-30T09:49:21.217Z,3.8
2022-11-30T09:50:20.361Z,3.8
2022-11-30T09:51:20.795Z,3.9
2022-11-30T09:52:20.828Z,3.9
2022-11-30T09:53:23.241Z,3.8
2022-11-30T09:54:20.564Z,3.8
2022-11-30T09:55:20.642Z,3.9
2022-11-30T09:56:20.709Z,3.9
2022-11-30T09:57:20.675Z,3.8
2022-11-30T09:58:21.183Z,3.8
2022-11-30T09:59:20.404Z,3.9
2022-11-30T10:00:20.657Z,3.9
2022-11-30T10:01:20.383Z,3.9
2022-11-30T10:02:20.979Z,3.9
2022-11-30T10:03:21.276Z,4
2022-11-30T10:04:20.592Z,4
2022-11-30T10:05:21.073Z,4
2022-11-30T10:06:20.457Z,4
2022-11-30T10:07:20.908Z,3.9
2022-11-30T10:08:20.158Z,3.9
2022-11-30T10:09:20.106Z,4
2022-11-30T10:10:34.922Z,4
2022-11-30T10:11:20.691Z,4
2022-11-30T10:12:21.178Z,4
2022-11-30T10:13:20.496Z,4
2022-11-30T10:14:21.043Z,4
2022-11-30T10:15:20.977Z,4
2022-11-30T10:16:21.088Z,4.2
2022-11-30T10:17:20.642Z,4.2
2022-11-30T10:18:21.008Z,4.2
2022-11-30T10:19:21.103Z,4.2
2022-11-30T10:20:20.475Z,4.2
2022-11-30T10:21:21.087Z,4.2
2022-11-30T10:22:21.161Z,4.3
2022-11-30T10:23:20.485Z,4.3
2022-11-30T10:24:20.868Z,4.3
2022-11-30T10:25:20.398Z,4.3
2022-11-30T10:26:20.733Z,4.3
2022-11-30T10:27:20.915Z,4.4
2022-11-30T10:29:20.384Z,4.4
2022-11-30T10:30:20.718Z,4.4
2022-11-30T10:31:20.352Z,4.4
2022-11-30T10:32:20.640Z,4
2022-11-30T10:33:20.812Z,4.5
2022-11-30T10:34:20.885Z,4.5
2022-11-30T10:35:21.155Z,4.6
2022-11-30T10:36:20.645Z,4.6
2022-11-30T10:37:21.092Z,4.6
2022-11-30T10:38:20.584Z,4.6
2022-11-30T10:39:21.047Z,4.5
2022-11-30T10:40:20.822Z,4.5
2022-11-30T10:41:21.186Z,4.5
2022-11-30T10:42:20.620Z,4.5
2022-11-30T10:43:21.098Z,4.5
2022-11-30T10:44:20.328Z,4.4
2022-11-30T10:45:20.907Z,4.5
2022-11-30T10:46:20.074Z,4.5
2022-11-30T10:47:19.347Z,4.5
2022-11-30T10:48:19.650Z,4.5
2022-11-30T10:49:20.960Z,4.5
2022-11-30T10:50:21.037Z,4.5
2022-11-30T10:51:20.398Z,4.5
2022-11-30T10:52:20.846Z,4.6
2022-11-30T10:53:19.854Z,4.6
2022-11-30T10:54:20.693Z,4.6
2022-11-30T10:55:20.905Z,4.6
2022-11-30T10:56:21.026Z,4.6
2022-11-30T10:57:20.394Z,4.6
2022-11-30T10:58:19.820Z,4.5
2022-11-30T10:59:21.001Z,4.5
2022-11-30T11:00:20.443Z,4.5
2022-11-30T11:01:21.122Z,4.6
2022-11-30T11:02:20.573Z,4.6
2022-11-30T11:03:20.655Z,4.6
2022-11-30T11:04:20.697Z,4.5
2022-11-30T11:05:20.447Z,4.5
2022-11-30T11:06:20.945Z,4.6
2022-11-30T11:07:21.236Z,4.6
2022-11-30T11:08:20.675Z,4.6
2022-11-30T11:09:20.977Z,4.6
2022-11-30T11:10:20.243Z,4
2022-11-30T11:11:20.446Z,4.6
2022-11-30T11:12:20.817Z,4.6
2022-11-30T11:13:21.203Z,4.7
2022-11-30T11:14:21.068Z,4.7
2022-11-30T11:15:21.176Z,4.6
2022-11-30T11:16:20.689Z,4.6
2022-11-30T11:17:21.040Z,4
2022-11-30T11:18:20.429Z,4.7
2022-11-30T11:19:20.799Z,4.6
2022-11-30T11:20:20.769Z,4.6
2022-11-30T11:21:20.200Z,4.7
2022-11-30T11:22:20.452Z,4.6
2022-11-30T11:23:20.661Z,4.7
2022-11-30T11:24:20.789Z,4.6
2022-11-30T11:25:21.255Z,4.7
2022-11-30T11:26:20.616Z,4.6
2022-11-30T11:27:20.618Z,4.6
2022-11-30T11:28:20.985Z,4.6
2022-11-30T11:29:20.760Z,4
2022-11-30T11:30:20.698Z,4.6
2022-11-30T11:31:20.590Z,4
2022-11-30T11:32:20.391Z,4.6
2022-11-30T11:33:20.272Z,4.6
2022-11-30T11:34:21.112Z,4.6
2022-11-30T11:35:20.423Z,4.6
2022-11-30T11:36:20.379Z,4.5
2022-11-30T11:37:20.294Z,4.5
2022-11-30T11:38:20.599Z,4.4
2022-11-30T11:39:20.616Z,4.4
2022-11-30T11:40:20.992Z,4.4
2022-11-30T11:41:20.297Z,4.4
2022-11-30T11:42:22.367Z,4
2022-11-30T11:43:21.015Z,4
2022-11-30T11:44:20.468Z,4.4
2022-11-30T11:45:21.016Z,4.4
2022-11-30T11:46:20.851Z,4
2022-11-30T11:47:21.169Z,4
2022-11-30T11:48:23.599Z,4.3
2022-11-30T11:49:20.876Z,4.3
2022-11-30T11:50:27.252Z,4.3
2022-11-30T11:51:20.218Z,4.4
2022-11-30T11:52:20.665Z,4.4
2022-11-30T11:53:20.574Z,4.3
2022-11-30T11:54:21.104Z,4.3
2022-11-30T11:55:20.395Z,4.3
2022-11-30T11:56:20.813Z,4.3
2022-11-30T11:57:19.917Z,4.3
2022-11-30T11:58:20.050Z,4.3
2022-11-30T11:59:20.590Z,4.3
2022-11-30T12:00:21.033Z,4.3
2022-11-30T12:02:20.290Z,4
2022-11-30T12:03:21.045Z,4.3
2022-11-30T12:04:20.718Z,4.2
2022-11-30T12:05:19.291Z,4.2
2022-11-30T12:06:21.554Z,4.2
2022-11-30T12:07:22.480Z,4.1
2022-11-30T12:08:20.958Z,4
2022-11-30T12:09:20.573Z,4
2022-11-30T12:10:55.591Z,4.1
2022-11-30T12:12:20.909Z,4.1
2022-11-30T12:13:20.640Z,4.2
2022-11-30T12:14:21.016Z,4.2
2022-11-30T12:15:21.407Z,4.2
2022-11-30T12:16:21.721Z,4.1
2022-11-30T12:17:20.908Z,4.1
2022-11-30T12:18:28.009Z,4.1
2022-11-30T12:19:20.864Z,4
2022-11-30T12:20:21.278Z,4.1
2022-11-30T12:21:20.731Z,4.1
2022-11-30T12:22:20.780Z,4
2022-11-30T12:23:21.127Z,4
2022-11-30T12:24:20.662Z,4
2022-11-30T12:25:21.050Z,4.1
2022-11-30T12:26:20.286Z,4.1
2022-11-30T12:27:19.801Z,4.1
2022-11-30T12:28:20.479Z,4.1
2022-11-30T12:29:21.000Z,4
2022-11-30T12:30:20.982Z,4.1
2022-11-30T12:31:20.761Z,4.1
2022-11-30T12:32:20.404Z,4.1
2022-11-30T12:33:20.258Z,4
2022-11-30T12:34:20.458Z,4.1
2022-11-30T12:35:20.975Z,4
2022-11-30T12:36:21.308Z,4
2022-11-30T12:37:20.945Z,4
2022-11-30T12:38:20.685Z,4
2022-11-30T12:39:20.967Z,4
2022-11-30T12:40:21.165Z,4
2022-11-30T12:41:20.660Z,4
2022-11-30T12:42:21.129Z,4
2022-11-30T12:43:20.616Z,4
2022-11-30T12:44:20.962Z,4
2022-11-30T12:45:21.409Z,4
2022-11-30T12:46:21.149Z,4
2022-11-30T12:47:20.625Z,4
2022-11-30T12:48:21.500Z,4
2022-11-30T12:49:21.055Z,4
2022-11-30T12:50:21.275Z,4
2022-11-30T12:51:22.817Z,4
2022-11-30T12:52:21.127Z,4
2022-11-30T12:53:20.425Z,4
2022-11-30T12:54:21.018Z,3.9
2022-11-30T12:55:20.674Z,4
2022-11-30T12:56:20.596Z,3.9
2022-11-30T12:57:20.573Z,3.9
2022-11-30T12:58:20.891Z,3.9
2022-11-30T12:59:20.911Z,3.9
2022-11-30T13:00:20.600Z,3.9
2022-11-30T13:01:20.610Z,4
2022-11-30T13:02:20.838Z,3.9
2022-11-30T13:03:21.276Z,3.9
2022-11-30T13:04:19.504Z,3
2022-11-30T13:05:20.867Z,3.9
2022-11-30T13:06:21.369Z,3.9
2022-11-30T13:07:21.351Z,3
2022-11-30T13:08:20.818Z,3.9
2022-11-30T13:09:21.163Z,3.8
2022-11-30T13:10:20.770Z,3.8
2022-11-30T13:11:20.071Z,3.8
2022-11-30T13:12:21.240Z,3.8
2022-11-30T13:13:20.527Z,3.9
2022-11-30T13:14:20.947Z,3.9
2022-11-30T13:15:20.677Z,3.8
2022-11-30T13:16:21.395Z,3.8
2022-11-30T13:17:21.168Z,3
2022-11-30T13:18:21.218Z,3
2022-11-30T13:19:20.813Z,3.7
2022-11-30T13:20:21.397Z,3.8
2022-11-30T13:21:20.752Z,3.8
2022-11-30T13:22:20.739Z,3.8
2022-11-30T13:23:21.350Z,3.8
2022-11-30T13:24:21.365Z,3.8
2022-11-30T13:25:26.301Z,3.7
2022-11-30T13:26:20.489Z,3.7
2022-11-30T13:27:20.911Z,3.7
2022-11-30T13:28:20.588Z,3.7
2022-11-30T13:29:21.145Z,3.7
2022-11-30T13:30:21.465Z,3
2022-11-30T13:31:21.064Z,3.7
2022-11-30T13:33:01.093Z,3.7
2022-11-30T13:34:20.862Z,3.6
2022-11-30T13:35:21.262Z,3.6
2022-11-30T13:36:20.678Z,3.6
2022-11-30T13:37:27.429Z,3.6
2022-11-30T13:38:50.845Z,3.6
2022-11-30T13:39:20.938Z,3.6
2022-11-30T13:40:21.275Z,3.6
2022-11-30T13:41:20.587Z,3.6
2022-11-30T13:42:21.154Z,3.6
2022-11-30T13:43:19.801Z,3.6
2022-11-30T13:44:19.582Z,3.6
2022-11-30T13:45:21.013Z,3
2022-11-30T13:46:21.057Z,3.6
2022-11-30T13:47:20.248Z,3.5
2022-11-30T13:48:20.574Z,3.5
2022-11-30T13:49:19.800Z,3.6
2022-11-30T13:50:20.954Z,3.6
2022-11-30T13:51:21.416Z,3.6
2022-11-30T13:52:29.094Z,3.6
2022-11-30T13:53:20.644Z,3.6
2022-11-30T13:54:31.727Z,3.6
2022-11-30T13:55:20.568Z,3
2022-11-30T13:56:21.147Z,3.6
2022-11-30T13:57:20.516Z,3.5
2022-11-30T13:58:21.018Z,3.6
2022-11-30T13:59:20.573Z,3.5
2022-11-30T14:00:21.051Z,3.5
2022-11-30T14:01:20.102Z,3.5
2022-11-30T14:02:21.501Z,3.5
2022-11-30T14:03:20.736Z,3.5
2022-11-30T14:04:21.174Z,3
2022-11-30T14:05:21.299Z,3.5
2022-11-30T14:06:22.276Z,3.5
2022-11-30T14:07:20.796Z,3.4
2022-11-30T14:08:21.036Z,3.4
2022-11-30T14:09:20.460Z,3.4